createdAt,value
2019-02-15T00:00:10.876Z,0.57
2019-02-15T00:05:20.118Z,1.02
2019-02-15T00:10:29.350Z,0.45
2019-02-15T00:15:38.809Z,0.28
2019-02-15T00:20:48.014Z,0.46
2019-02-15T00:25:57.252Z,0.44
2019-02-15T00:31:06.491Z,0.48
2019-02-15T00:36:15.846Z,1.28
2019-02-15T00:41:25.077Z,0.69
2019-02-15T00:46:34.529Z,0.68
2019-02-15T00:51:43.676Z,0.44
2019-02-15T00:56:52.954Z,0.62
2019-02-15T01:02:02.171Z,0.54
2019-02-15T01:07:14.804Z,0.46
2019-02-15T01:12:13.995Z,0.79
2019-02-15T01:17:23.194Z,0.46
2019-02-15T01:22:32.428Z,0.78
2019-02-15T01:27:41.586Z,0.54
2019-02-15T01:32:50.958Z,0.40
2019-02-15T01:38:00.106Z,0.65
2019-02-15T01:43:09.308Z,0.87
2019-02-15T01:48:18.555Z,1.37
2019-02-15T01:53:28.027Z,6.81
2019-02-15T01:58:37.282Z,0.42
2019-02-15T02:03:46.518Z,0.63
2019-02-15T02:08:55.831Z,0.70
2019-02-15T02:14:05.114Z,0.86
2019-02-15T02:19:14.308Z,0.82
2019-02-15T02:24:23.544Z,0.54
2019-02-15T02:29:33.011Z,0.73
2019-02-15T02:34:42.268Z,0.65
2019-02-15T02:39:51.505Z,1.30
2019-02-15T02:45:00.695Z,0.84
2019-02-15T02:50:09.900Z,0.57
2019-02-15T02:55:19.238Z,1.71
2019-02-15T03:00:33.471Z,0.82
2019-02-15T03:05:37.447Z,1.24
2019-02-15T03:10:46.614Z,0.67
2019-02-15T03:15:55.959Z,0.58
2019-02-15T03:21:05.228Z,0.82
2019-02-15T03:26:14.467Z,0.66
2019-02-15T03:31:24.222Z,0.77
2019-02-15T03:36:33.542Z,1.66
2019-02-15T03:41:42.803Z,1.07
2019-02-15T03:46:52.073Z,1.08
2019-02-15T03:52:01.450Z,0.68
2019-02-15T03:57:10.906Z,1.39
2019-02-15T04:02:20.190Z,0.66
2019-02-15T04:07:29.603Z,1.93
2019-02-15T04:12:39.010Z,1.13
2019-02-15T04:17:48.286Z,0.73
2019-02-15T04:22:57.503Z,0.94
2019-02-15T04:28:06.799Z,0.54
2019-02-15T04:33:15.946Z,0.93
2019-02-15T04:38:25.136Z,0.87
2019-02-15T04:43:34.339Z,0.73
2019-02-15T04:48:43.622Z,1.33
2019-02-15T04:53:52.962Z,1.12
2019-02-15T04:59:02.213Z,1.31
2019-02-15T05:04:11.468Z,0.95
2019-02-15T05:09:20.926Z,0.99
2019-02-15T05:14:30.276Z,0.62
2019-02-15T05:19:39.557Z,1.18
2019-02-15T05:24:48.794Z,2.31
2019-02-15T05:29:58.247Z,1.92
2019-02-15T05:35:07.487Z,1.49
2019-02-15T05:40:16.753Z,0.59
2019-02-15T05:45:26.148Z,1.02
2019-02-15T05:50:35.646Z,0.53
2019-02-15T05:55:44.851Z,0.96
2019-02-15T06:00:54.154Z,1.05
2019-02-15T06:06:03.387Z,1.41
2019-02-15T06:11:12.942Z,0.89
2019-02-15T06:16:22.139Z,0.93
2019-02-15T06:21:31.567Z,0.76
2019-02-15T06:26:41.143Z,0.66
2019-02-15T06:31:50.382Z,0.69
2019-02-15T06:36:59.632Z,0.76
2019-02-15T06:42:09.038Z,0.90
2019-02-15T06:47:18.472Z,1.35
2019-02-15T06:52:27.817Z,0.78
2019-02-15T06:57:37.017Z,0.89
2019-02-15T07:02:46.318Z,1.83
2019-02-15T07:07:55.503Z,0.66
2019-02-15T07:13:05.453Z,0.75
2019-02-15T07:18:14.666Z,0.76
2019-02-15T07:23:23.893Z,0.74
2019-02-15T07:28:33.162Z,0.75
2019-02-15T07:33:42.419Z,1.02
2019-02-15T07:38:51.712Z,1.02
2019-02-15T07:44:01.125Z,2.57
2019-02-15T07:49:10.686Z,1.35
2019-02-15T07:54:19.932Z,1.47
2019-02-15T07:59:29.430Z,4.86
2019-02-15T08:04:38.662Z,3.08
2019-02-15T08:09:48.100Z,2.55
2019-02-15T08:14:57.368Z,6.12
2019-02-15T08:20:06.754Z,6.43
2019-02-15T08:25:16.085Z,16.92
2019-02-15T08:30:25.472Z,7.32
2019-02-15T08:35:34.789Z,19.27
2019-02-15T08:40:44.234Z,12.14
2019-02-15T08:46:00.593Z,8.01
2019-02-15T08:51:02.313Z,9.47
2019-02-15T08:56:11.866Z,8.95
2019-02-15T09:01:21.407Z,12.49
2019-02-15T09:06:30.726Z,10.92
2019-02-15T09:11:40.130Z,5.27
2019-02-15T09:16:49.395Z,4.55
2019-02-15T09:21:58.793Z,5.48
2019-02-15T09:27:08.006Z,6.45
2019-02-15T09:32:17.496Z,3.29
2019-02-15T09:37:26.730Z,5.68
2019-02-15T09:42:36.415Z,5.83
2019-02-15T09:47:45.689Z,8.82
2019-02-15T09:52:54.942Z,7.31
2019-02-15T09:58:04.175Z,3.94
2019-02-15T10:03:13.478Z,6.55
2019-02-15T10:08:22.915Z,6.13
2019-02-15T10:13:32.180Z,3.38
2019-02-15T10:18:41.529Z,5.85
2019-02-15T10:23:50.882Z,3.49
2019-02-15T10:29:00.136Z,2.84
2019-02-15T10:34:09.459Z,3.67
2019-02-15T10:39:18.698Z,5.58
2019-02-15T10:44:28.006Z,5.54
2019-02-15T10:49:37.348Z,3.93
2019-02-15T10:54:46.974Z,3.48
2019-02-15T10:59:56.097Z,2.52
2019-02-15T11:05:05.406Z,6.16
2019-02-15T11:10:14.593Z,1.38
2019-02-15T11:15:24.101Z,2.22
2019-02-15T11:20:33.575Z,3.63
2019-02-15T11:25:42.982Z,6.18
2019-02-15T11:30:52.475Z,2.51
2019-02-15T11:36:01.937Z,2.82
2019-02-15T11:41:11.529Z,1.68
2019-02-15T11:46:20.656Z,1.26
2019-02-15T11:51:29.893Z,3.19
2019-02-15T11:56:39.182Z,1.74
2019-02-15T12:01:48.391Z,0.80
2019-02-15T12:06:57.662Z,1.47
2019-02-15T12:12:10.816Z,2.16
2019-02-15T12:17:15.750Z,0.82
2019-02-15T12:22:25.196Z,0.81
2019-02-15T12:27:34.548Z,1.10
2019-02-15T12:32:43.858Z,1.52
2019-02-15T12:37:53.215Z,0.79
2019-02-15T12:43:02.445Z,0.57
2019-02-15T12:48:11.759Z,3.49
2019-02-15T12:53:21.318Z,0.43
2019-02-15T12:58:30.898Z,0.99
2019-02-15T13:03:39.926Z,0.86
2019-02-15T13:08:49.106Z,3.88
2019-02-15T13:13:58.434Z,3.17
2019-02-15T13:19:07.663Z,2.16
2019-02-15T13:24:17.000Z,1.62
2019-02-15T13:29:45.610Z,1.53
2019-02-15T13:34:44.845Z,1.88
2019-02-15T13:39:54.137Z,4.06
2019-02-15T13:45:03.382Z,1.78
2019-02-15T13:50:12.815Z,0.67
2019-02-15T13:55:22.200Z,0.66
2019-02-15T14:00:31.577Z,0.45
2019-02-15T14:05:40.894Z,0.91
2019-02-15T14:10:50.275Z,1.20
2019-02-15T14:15:59.706Z,0.83
2019-02-15T14:21:09.089Z,0.89
2019-02-15T14:26:18.451Z,1.02
2019-02-15T14:31:27.746Z,1.09
2019-02-15T14:36:36.997Z,0.78
2019-02-15T14:41:46.458Z,0.61
2019-02-15T14:46:55.700Z,0.75
2019-02-15T14:52:05.059Z,0.52
2019-02-15T14:57:14.287Z,0.58
2019-02-15T15:02:23.772Z,0.92
2019-02-15T15:07:33.011Z,0.29
2019-02-15T15:12:45.011Z,0.45
2019-02-15T15:17:44.252Z,0.63
2019-02-15T15:22:53.735Z,1.61
2019-02-15T15:28:03.061Z,0.34
2019-02-15T15:33:12.282Z,0.31
2019-02-15T15:38:21.526Z,0.74
2019-02-15T15:43:30.723Z,1.80
2019-02-15T15:48:40.037Z,0.93
2019-02-15T15:53:49.438Z,0.54
2019-02-15T15:58:58.666Z,0.44
2019-02-15T16:04:08.056Z,0.47
2019-02-15T16:09:17.284Z,0.27
2019-02-15T16:14:28.800Z,0.39
2019-02-15T16:19:28.149Z,0.32
2019-02-15T16:24:37.435Z,0.53
2019-02-15T16:29:46.650Z,1.89
2019-02-15T16:34:55.934Z,0.25
2019-02-15T16:40:05.217Z,0.38
2019-02-15T16:45:14.399Z,0.36
2019-02-15T16:50:23.678Z,0.27
2019-02-15T16:55:32.946Z,0.27
2019-02-15T17:00:42.377Z,1.24
2019-02-15T17:05:51.671Z,1.11
2019-02-15T17:11:01.061Z,0.48
2019-02-15T17:16:10.291Z,0.39
2019-02-15T17:21:19.574Z,0.42
2019-02-15T17:26:28.891Z,0.30
2019-02-15T17:31:38.301Z,0.85
2019-02-15T17:36:47.564Z,0.65
2019-02-15T17:41:56.975Z,0.62
2019-02-15T17:47:06.311Z,0.35
2019-02-15T17:52:16.693Z,0.30
2019-02-15T17:57:17.247Z,0.40
2019-02-15T18:02:16.570Z,0.28
2019-02-15T18:07:25.952Z,0.45
2019-02-15T18:12:36.107Z,0.25
2019-02-15T18:17:35.673Z,0.93
2019-02-15T18:22:48.506Z,0.44
2019-02-15T18:27:47.772Z,0.32
2019-02-15T18:32:56.987Z,0.37
2019-02-15T18:38:06.259Z,0.73
2019-02-15T18:43:15.647Z,2.48
2019-02-15T18:48:24.879Z,4.25
2019-02-15T18:53:34.227Z,1.56
2019-02-15T18:58:43.490Z,2.98
2019-02-15T19:03:52.691Z,3.64
2019-02-15T19:09:01.995Z,1.33
2019-02-15T19:14:11.441Z,2.41
2019-02-15T19:19:28.962Z,0.83
2019-02-15T19:24:29.548Z,1.32
2019-02-15T19:29:38.944Z,0.52
2019-02-15T19:34:48.164Z,1.15
2019-02-15T19:39:57.490Z,0.97
2019-02-15T19:45:06.987Z,1.52
2019-02-15T19:50:16.310Z,0.63
2019-02-15T19:55:25.973Z,0.42
2019-02-15T20:00:35.717Z,0.42
2019-02-15T20:05:44.015Z,0.66
2019-02-15T20:10:53.363Z,1.03
2019-02-15T20:16:02.766Z,0.56
2019-02-15T20:21:12.121Z,1.04
2019-02-15T20:26:21.322Z,0.49
2019-02-15T20:31:30.779Z,0.81
2019-02-15T20:36:39.961Z,0.66
2019-02-15T20:41:49.288Z,0.45
2019-02-15T20:46:58.599Z,0.60
2019-02-15T20:52:08.251Z,0.51
2019-02-15T20:57:17.510Z,0.69
2019-02-15T21:02:26.775Z,0.55
2019-02-15T21:07:36.566Z,0.52
2019-02-15T21:12:45.931Z,0.43
2019-02-15T21:17:55.229Z,0.57
2019-02-15T21:23:04.467Z,0.89
2019-02-15T21:28:13.840Z,0.60
2019-02-15T21:33:23.360Z,0.92
2019-02-15T21:38:32.869Z,0.62
2019-02-15T21:43:42.618Z,0.53
2019-02-15T21:48:51.959Z,0.54
2019-02-15T21:54:01.186Z,0.25
2019-02-15T21:59:10.596Z,0.50
2019-02-15T22:04:19.790Z,0.53
2019-02-15T22:09:30.563Z,0.36
2019-02-15T22:14:29.738Z,0.47
2019-02-15T22:19:39.212Z,0.34
2019-02-15T22:24:48.489Z,0.52
2019-02-15T22:29:57.783Z,0.42
2019-02-15T22:35:07.005Z,0.48
2019-02-15T22:40:16.327Z,0.49
2019-02-15T22:45:25.634Z,0.61
2019-02-15T22:50:36.315Z,0.45
2019-02-15T22:55:43.758Z,0.47
2019-02-15T23:00:56.012Z,1.53
2019-02-15T23:05:54.215Z,0.38
2019-02-15T23:11:03.443Z,0.37
2019-02-15T23:16:12.761Z,0.48
2019-02-15T23:21:22.127Z,0.41
2019-02-15T23:26:31.344Z,0.35
2019-02-15T23:31:40.609Z,0.67
2019-02-15T23:36:49.861Z,0.50
2019-02-15T23:41:59.121Z,0.49
2019-02-15T23:47:08.302Z,0.81
2019-02-15T23:52:17.523Z,0.45
2019-02-15T23:57:26.999Z,0.59
